Time;durP1;ratioP1;P1;durP2;ratioP2;P2;SDS_P1;SDS_P2;PMS_P1;PMS_P2;Temp;Humidity;BMP_temperature;BMP_pressure;BME280_temperature;BME280_humidity;BME280_pressure;Samples;Min_cycle;Max_cycle;Signal;HPM_P1;HPM_P2
2022/04/24 00:01:13;;;;;;;2.20;0.53;;;10.00;1.00;;;;;;5009553;28;20200;-68
2022/04/24 00:03:41;;;;;;;1.13;0.50;;;10.00;1.00;;;;;;5010494;28;20200;-69
2022/04/24 00:06:10;;;;;;;0.70;0.47;;;10.00;1.00;;;;;;5009953;28;20208;-68
2022/04/24 00:08:37;;;;;;;0.53;0.53;;;10.10;1.00;;;;;;5010077;28;20200;-69
2022/04/24 00:11:04;;;;;;;0.60;0.47;;;10.10;1.00;;;;;;5002472;28;20204;-72
2022/04/24 00:13:37;;;;;;;2.27;1.00;;;10.10;1.00;;;;;;5002180;28;20252;-68
2022/04/24 00:16:05;;;;;;;0.70;0.60;;;10.20;1.00;;;;;;5006276;28;20208;-68
2022/04/24 00:18:33;;;;;;;2.07;0.60;;;10.20;1.00;;;;;;5001621;28;20236;-69
2022/04/24 00:21:00;;;;;;;1.47;1.03;;;10.20;1.00;;;;;;5010043;28;20683;-67
2022/04/24 00:23:28;;;;;;;3.80;0.80;;;10.20;1.00;;;;;;5009206;28;20662;-72
2022/04/24 00:25:56;;;;;;;1.13;0.70;;;10.40;1.00;;;;;;5010066;28;20204;-69
2022/04/24 00:28:23;;;;;;;1.13;0.50;;;10.50;1.00;;;;;;5009670;28;20291;-67
2022/04/24 00:30:50;;;;;;;1.60;0.90;;;10.30;1.00;;;;;;5010020;28;20271;-69
2022/04/24 00:33:17;;;;;;;3.20;0.83;;;10.30;1.00;;;;;;5010431;28;20199;-72
2022/04/24 00:35:44;;;;;;;2.67;1.30;;;10.20;1.00;;;;;;5005645;28;20196;-73
2022/04/24 00:38:11;;;;;;;2.53;0.70;;;10.20;1.00;;;;;;5013339;28;20707;-68
2022/04/24 00:40:39;;;;;;;1.00;0.70;;;10.20;1.00;;;;;;5013384;28;20204;-69
2022/04/24 00:43:07;;;;;;;4.00;0.73;;;10.20;1.00;;;;;;5013671;28;20753;-69
2022/04/24 00:45:33;;;;;;;1.77;0.83;;;10.20;1.00;;;;;;5013337;28;20208;-69
2022/04/24 00:48:00;;;;;;;1.50;0.90;;;10.20;1.00;;;;;;5013585;28;20668;-70
2022/04/24 00:50:27;;;;;;;1.60;0.97;;;10.20;1.00;;;;;;5012611;28;20208;-69
2022/04/24 00:52:54;;;;;;;3.57;1.23;;;10.30;1.00;;;;;;5013755;28;20208;-70
2022/04/24 00:55:24;;;;;;;2.93;0.90;;;10.30;1.00;;;;;;5012849;28;20208;-69
2022/04/24 00:57:52;;;;;;;2.07;0.77;;;10.30;1.00;;;;;;5005609;28;20207;-68
2022/04/24 01:00:19;;;;;;;1.67;0.80;;;10.20;1.00;;;;;;5013236;28;20270;-74
2022/04/24 01:02:46;;;;;;;2.27;1.03;;;10.30;1.00;;;;;;5012917;28;20317;-70
2022/04/24 01:05:16;;;;;;;1.73;1.00;;;10.30;1.00;;;;;;5012689;28;20220;-68
2022/04/24 01:07:42;;;;;;;0.90;0.80;;;10.30;1.00;;;;;;5012913;28;20204;-68
2022/04/24 01:10:10;;;;;;;1.60;0.97;;;10.30;1.00;;;;;;5012823;28;20204;-69
2022/04/24 01:12:37;;;;;;;0.90;0.80;;;10.30;1.00;;;;;;5012917;28;20204;-68
2022/04/24 01:15:07;;;;;;;3.20;0.97;;;10.30;1.00;;;;;;5013131;28;20759;-71
2022/04/24 01:17:34;;;;;;;1.40;0.60;;;10.50;1.00;;;;;;5013084;28;20200;-70
2022/04/24 01:20:01;;;;;;;1.00;0.67;;;10.00;1.00;;;;;;5012996;28;20225;-72
2022/04/24 01:22:30;;;;;;;0.60;0.60;;;10.20;1.00;;;;;;5012557;28;20212;-70
2022/04/24 01:24:57;;;;;;;0.50;0.50;;;10.30;1.00;;;;;;5012501;28;20213;-72
2022/04/24 01:27:23;;;;;;;0.60;0.50;;;10.20;1.00;;;;;;5012439;28;20200;-73
2022/04/24 01:29:51;;;;;;;1.37;0.50;;;10.30;1.00;;;;;;5004533;28;20594;-69
2022/04/24 01:32:18;;;;;;;0.90;0.50;;;10.30;1.00;;;;;;5006933;28;20213;-68
2022/04/24 01:34:45;;;;;;;0.50;0.40;;;10.30;1.00;;;;;;5009965;28;20673;-70
2022/04/24 01:37:12;;;;;;;0.53;0.20;;;10.30;1.00;;;;;;5012403;28;20208;-69
2022/04/24 01:39:41;;;;;;;1.57;0.47;;;10.30;1.00;;;;;;5011770;28;20239;-70
2022/04/24 01:42:08;;;;;;;0.53;0.53;;;10.30;1.00;;;;;;5005297;28;20208;-69
2022/04/24 01:44:35;;;;;;;1.13;0.30;;;10.40;1.00;;;;;;5004391;28;20200;-69
2022/04/24 01:47:02;;;;;;;0.57;0.30;;;10.30;1.00;;;;;;5012362;28;20266;-68
2022/04/24 01:49:29;;;;;;;0.70;0.40;;;10.30;1.00;;;;;;5003878;28;20680;-71
2022/04/24 01:51:56;;;;;;;0.60;0.40;;;10.40;1.00;;;;;;5004357;28;20205;-71
2022/04/24 01:54:23;;;;;;;0.90;0.20;;;10.40;1.00;;;;;;5006739;28;20255;-71
2022/04/24 01:56:51;;;;;;;0.60;0.50;;;10.30;1.00;;;;;;5009449;28;20586;-70
2022/04/24 01:59:19;;;;;;;0.70;0.27;;;10.40;1.00;;;;;;5003672;28;20302;-71
2022/04/24 02:01:46;;;;;;;0.23;0.20;;;10.40;1.00;;;;;;5012247;28;20730;-69
2022/04/24 02:04:13;;;;;;;0.33;0.30;;;10.40;1.00;;;;;;5011655;28;20208;-68
2022/04/24 02:06:40;;;;;;;0.30;0.27;;;10.40;1.00;;;;;;5000336;28;20221;-68
2022/04/24 02:09:07;;;;;;;1.60;0.37;;;10.40;1.00;;;;;;5010651;28;20266;-69
2022/04/24 02:11:34;;;;;;;0.40;0.40;;;10.40;1.00;;;;;;5012397;28;20246;-68
2022/04/24 02:14:02;;;;;;;0.30;0.30;;;10.50;1.00;;;;;;5011494;28;20204;-71
2022/04/24 02:16:30;;;;;;;0.53;0.30;;;10.50;1.00;;;;;;5011657;28;20204;-69
2022/04/24 02:18:57;;;;;;;1.80;0.53;;;10.50;1.00;;;;;;5011534;28;20236;-69
2022/04/24 02:21:24;;;;;;;2.40;0.50;;;10.40;1.00;;;;;;5011395;28;20246;-69
2022/04/24 02:23:51;;;;;;;1.73;0.80;;;10.50;1.00;;;;;;5011808;28;20201;-68
2022/04/24 02:26:18;;;;;;;0.40;0.40;;;10.50;1.00;;;;;;5010971;28;20200;-68
2022/04/24 02:28:45;;;;;;;0.70;0.50;;;10.50;1.00;;;;;;5003728;28;20209;-68
2022/04/24 02:31:13;;;;;;;0.40;0.30;;;10.50;1.00;;;;;;5011314;28;20200;-70
2022/04/24 02:33:40;;;;;;;3.60;0.53;;;10.50;1.00;;;;;;5011674;28;20216;-69
2022/04/24 02:36:07;;;;;;;0.43;0.30;;;10.60;1.00;;;;;;5010015;28;20210;-69
2022/04/24 02:38:34;;;;;;;0.77;0.50;;;10.50;1.00;;;;;;5005321;28;20270;-69
2022/04/24 02:41:01;;;;;;;1.57;0.80;;;10.50;1.00;;;;;;5003332;28;20204;-68
2022/04/24 02:43:28;;;;;;;4.93;0.70;;;10.60;1.00;;;;;;5003990;28;20262;-69
2022/04/24 02:45:55;;;;;;;0.73;0.60;;;10.60;1.00;;;;;;5010887;28;20258;-70
2022/04/24 02:48:27;;;;;;;0.63;0.60;;;10.60;1.00;;;;;;5007905;28;20201;-69
2022/04/24 02:50:54;;;;;;;0.70;0.30;;;10.60;1.00;;;;;;5006653;28;20561;-69
2022/04/24 02:53:21;;;;;;;0.80;0.50;;;10.60;1.00;;;;;;5008179;28;20211;-71
2022/04/24 02:55:48;;;;;;;1.00;0.37;;;10.70;1.00;;;;;;4999281;28;20660;-69
2022/04/24 02:58:15;;;;;;;1.67;0.40;;;10.70;1.00;;;;;;5008482;28;20672;-69
2022/04/24 03:00:49;;;;;;;0.97;0.30;;;10.60;1.00;;;;;;5011069;28;20674;-70
2022/04/24 03:03:18;;;;;;;0.30;0.30;;;10.60;1.00;;;;;;5010521;28;20204;-69
2022/04/24 03:05:48;;;;;;;0.40;0.30;;;10.70;1.00;;;;;;5010848;28;20212;-69
2022/04/24 03:08:16;;;;;;;0.40;0.40;;;10.60;1.00;;;;;;5002371;28;20665;-69
2022/04/24 03:10:44;;;;;;;1.03;0.30;;;10.70;1.00;;;;;;5006289;28;20259;-69
2022/04/24 03:13:11;;;;;;;0.57;0.57;;;10.60;1.00;;;;;;5007682;28;20287;-70
2022/04/24 03:15:39;;;;;;;0.40;0.40;;;10.70;1.00;;;;;;5011082;28;20200;-69
2022/04/24 03:18:06;;;;;;;0.50;0.30;;;10.70;1.00;;;;;;5003458;28;20286;-69
2022/04/24 03:20:33;;;;;;;0.63;0.40;;;10.70;1.00;;;;;;5007741;28;20221;-70
2022/04/24 03:23:02;;;;;;;1.90;0.50;;;10.70;1.00;;;;;;5003176;28;20200;-69
2022/04/24 03:25:29;;;;;;;0.50;0.50;;;10.80;1.00;;;;;;5001658;28;20217;-71
2022/04/24 03:27:56;;;;;;;1.67;0.60;;;10.70;1.00;;;;;;5010033;28;20680;-72
2022/04/24 03:30:23;;;;;;;0.83;0.70;;;10.70;1.00;;;;;;5009364;28;20215;-70
2022/04/24 03:32:50;;;;;;;1.10;1.00;;;10.80;1.00;;;;;;5010468;28;20204;-67
2022/04/24 03:35:17;;;;;;;1.53;1.20;;;10.80;1.00;;;;;;5010132;28;20254;-70
2022/04/24 03:37:44;;;;;;;2.10;1.60;;;10.80;1.00;;;;;;5010418;28;20254;-68
2022/04/24 03:40:13;;;;;;;2.70;2.03;;;10.80;1.00;;;;;;5009634;28;20649;-68
2022/04/24 03:42:40;;;;;;;4.67;1.83;;;10.90;1.00;;;;;;5009438;28;20224;-68
2022/04/24 03:45:11;;;;;;;4.10;2.70;;;10.90;1.00;;;;;;5010361;28;20204;-69
2022/04/24 03:47:38;;;;;;;5.50;3.30;;;10.90;1.00;;;;;;5007105;28;20762;-70
2022/04/24 03:50:06;;;;;;;5.37;3.43;;;11.00;1.00;;;;;;5010672;28;20208;-70
2022/04/24 03:52:34;;;;;;;6.20;4.37;;;11.00;1.00;;;;;;5010170;28;20215;-68
2022/04/24 03:55:03;;;;;;;8.37;4.67;;;11.00;1.00;;;;;;5009427;28;20204;-69
2022/04/24 03:57:35;;;;;;;8.97;5.77;;;11.00;1.00;;;;;;5008216;28;20204;-71
2022/04/24 04:00:03;;;;;;;10.07;6.97;;;11.10;1.00;;;;;;5010225;28;20608;-68
2022/04/24 04:02:30;;;;;;;8.90;6.30;;;11.10;1.00;;;;;;5009934;28;20254;-68
2022/04/24 04:04:58;;;;;;;12.73;8.67;;;11.20;1.00;;;;;;5009897;28;20216;-68
2022/04/24 04:07:25;;;;;;;17.23;9.70;;;11.20;1.00;;;;;;5009388;28;20291;-68
2022/04/24 04:09:52;;;;;;;18.23;10.37;;;11.30;1.00;;;;;;5012660;28;20251;-68
2022/04/24 04:12:18;;;;;;;14.73;9.13;;;11.20;1.00;;;;;;5013845;28;20204;-68
2022/04/24 04:14:47;;;;;;;21.77;12.70;;;11.40;1.00;;;;;;5013889;28;20205;-68
2022/04/24 04:17:14;;;;;;;20.23;13.17;;;11.40;1.00;;;;;;5013139;28;20204;-69
2022/04/24 04:19:41;;;;;;;20.70;14.90;;;11.40;1.00;;;;;;5013897;28;20715;-68
2022/04/24 04:22:08;;;;;;;22.73;15.27;;;11.50;1.00;;;;;;5005508;28;20209;-69
2022/04/24 04:24:34;;;;;;;28.83;18.53;;;11.50;1.00;;;;;;5006130;28;20204;-69
2022/04/24 04:27:01;;;;;;;27.33;17.10;;;11.60;1.00;;;;;;5005899;28;20258;-69
2022/04/24 04:29:28;;;;;;;26.10;17.53;;;11.60;1.00;;;;;;5013147;28;20216;-69
2022/04/24 04:31:57;;;;;;;29.67;18.03;;;11.60;1.00;;;;;;5013787;28;20716;-68
2022/04/24 04:34:24;;;;;;;28.80;19.00;;;11.70;1.00;;;;;;5013311;28;20208;-68
2022/04/24 04:36:51;;;;;;;33.67;21.20;;;11.70;1.00;;;;;;5013585;28;20624;-68
2022/04/24 04:39:18;;;;;;;30.90;19.80;;;11.70;1.00;;;;;;5013385;28;20227;-69
2022/04/24 04:41:44;;;;;;;37.47;21.43;;;11.70;1.00;;;;;;5005100;28;20258;-74
2022/04/24 04:44:11;;;;;;;37.50;21.80;;;11.80;1.00;;;;;;5004860;28;20262;-68
2022/04/24 04:46:39;;;;;;;32.63;22.33;;;11.80;1.00;;;;;;5005250;28;20583;-70
2022/04/24 04:49:07;;;;;;;35.93;22.57;;;11.80;1.00;;;;;;5005831;28;20291;-70
2022/04/24 04:51:35;;;;;;;30.87;19.67;;;11.90;1.00;;;;;;5013403;28;20266;-70
2022/04/24 04:54:02;;;;;;;28.73;19.30;;;12.30;1.00;;;;;;5009185;28;20204;-70
2022/04/24 04:56:29;;;;;;;29.17;20.17;;;12.20;1.00;;;;;;5009001;28;20208;-70
2022/04/24 04:58:56;;;;;;;35.77;21.23;;;11.90;1.00;;;;;;5011391;28;20208;-69
2022/04/24 05:01:23;;;;;;;31.37;20.90;;;12.10;1.00;;;;;;5007996;28;20217;-68
2022/04/24 05:03:50;;;;;;;36.33;22.17;;;11.90;1.00;;;;;;5013169;28;20208;-70
2022/04/24 05:06:18;;;;;;;26.03;19.50;;;12.40;1.00;;;;;;5012320;28;20299;-71
2022/04/24 05:08:45;;;;;;;29.83;19.03;;;;;;;;;;5012028;28;20254;-70
2022/04/24 05:11:12;;;;;;;29.13;20.03;;;12.10;1.00;;;;;;5004101;28;20209;-71
2022/04/24 05:13:39;;;;;;;28.53;19.40;;;12.60;1.00;;;;;;5004838;28;20676;-71
2022/04/24 05:16:07;;;;;;;37.03;22.83;;;12.40;1.00;;;;;;5004333;28;20747;-70
2022/04/24 05:18:34;;;;;;;27.90;19.67;;;11.70;1.00;;;;;;5012954;28;20251;-72
2022/04/24 05:21:02;;;;;;;27.07;20.27;;;12.20;1.00;;;;;;5012889;28;20683;-70
2022/04/24 05:23:30;;;;;;;37.97;21.57;;;12.00;1.00;;;;;;5004514;28;20227;-69
2022/04/24 05:25:58;;;;;;;33.67;22.27;;;12.00;1.00;;;;;;5012693;28;20663;-69
2022/04/24 05:28:25;;;;;;;29.93;20.70;;;12.00;1.00;;;;;;5012157;28;20291;-68
2022/04/24 05:30:52;;;;;;;27.20;19.27;;;12.00;1.00;;;;;;5012364;28;20204;-71
2022/04/24 05:33:19;;;;;;;28.87;18.57;;;12.00;1.00;;;;;;5011765;28;20616;-70
2022/04/24 05:35:46;;;;;;;29.33;18.57;;;12.70;99.90;;;;;;5007131;28;20212;-70
2022/04/24 05:38:13;;;;;;;31.87;18.20;;;12.20;1.00;;;;;;5012148;28;20208;-69
2022/04/24 05:40:42;;;;;;;27.30;19.83;;;12.00;1.00;;;;;;5008492;28;20229;-67
2022/04/24 05:43:08;;;;;;;27.13;17.37;;;12.00;1.00;;;;;;5001664;28;20217;-69
2022/04/24 05:45:36;;;;;;;29.07;18.30;;;12.00;1.00;;;;;;5011168;28;20204;-68
2022/04/24 05:48:04;;;;;;;30.77;18.87;;;12.00;1.00;;;;;;5012857;28;20276;-72
2022/04/24 05:50:31;;;;;;;27.60;18.43;;;12.00;1.00;;;;;;5003676;28;20259;-69
2022/04/24 05:52:58;;;;;;;24.83;17.53;;;12.00;1.00;;;;;;5012286;28;20750;-74
2022/04/24 05:55:25;;;;;;;31.40;19.73;;;12.00;1.00;;;;;;5011994;28;20204;-69
2022/04/24 05:57:54;;;;;;;30.03;17.77;;;12.00;1.00;;;;;;5012472;28;20212;-68
2022/04/24 06:00:22;;;;;;;24.87;17.10;;;12.00;1.00;;;;;;5011644;28;20278;-69
2022/04/24 06:02:48;;;;;;;25.33;16.25;;;12.00;1.00;;;;;;5011663;28;20211;-68
2022/04/24 06:05:15;;;;;;;23.77;14.97;;;12.00;1.00;;;;;;5011656;28;20245;-70
2022/04/24 06:07:43;;;;;;;23.07;15.47;;;12.00;1.00;;;;;;5011905;28;20267;-69
2022/04/24 06:10:11;;;;;;;22.43;14.77;;;12.00;1.00;;;;;;5008626;28;20563;-69
2022/04/24 06:12:46;;;;;;;21.63;15.13;;;12.00;1.00;;;;;;5000979;28;20209;-69
2022/04/24 06:15:16;;;;;;;27.43;15.63;;;12.00;1.00;;;;;;5010725;28;20274;-70
2022/04/24 06:17:43;;;;;;;29.07;16.63;;;12.00;1.00;;;;;;5005108;28;20197;-69
2022/04/24 06:20:11;;;;;;;25.93;16.87;;;12.00;1.00;;;;;;5009978;28;20232;-70
2022/04/24 06:22:49;;;;;;;26.67;15.97;;;12.00;1.00;;;;;;5011902;28;20200;-70
2022/04/24 06:25:17;;;;;;;21.53;14.43;;;12.00;1.00;;;;;;5011104;28;20676;-74
2022/04/24 06:27:44;;;;;;;25.87;18.70;;;12.00;1.00;;;;;;5011417;28;20201;-71
2022/04/24 06:30:12;;;;;;;32.73;18.93;;;12.00;1.00;;;;;;5007651;28;20212;-79
2022/04/24 06:32:41;;;;;;;24.73;16.77;;;12.00;1.00;;;;;;5010156;28;20207;-70
2022/04/24 06:35:09;;;;;;;25.77;17.93;;;12.00;1.00;;;;;;5010965;28;20737;-69
2022/04/24 06:37:37;;;;;;;26.42;18.38;;;12.00;1.00;;;;;;5011183;28;20230;-70
2022/04/24 06:40:04;;;;;;;27.13;17.30;;;11.90;1.00;;;;;;5011568;28;20220;-76
2022/04/24 06:42:31;;;;;;;27.87;17.37;;;12.00;1.00;;;;;;5010954;28;20675;-70
2022/04/24 06:44:58;;;;;;;28.43;17.37;;;11.90;99.90;;;;;;5011325;28;20731;-74
2022/04/24 06:47:27;;;;;;;31.33;19.07;;;12.00;99.90;;;;;;5010683;28;20209;-71
2022/04/24 06:49:56;;;;;;;24.27;17.00;;;12.00;99.90;;;;;;5011360;28;20208;-72
2022/04/24 06:52:23;;;;;;;36.03;20.17;;;12.00;99.90;;;;;;5003444;28;20209;-73
2022/04/24 06:54:50;;;;;;;29.00;20.33;;;12.00;99.90;;;;;;5010785;28;20212;-75
2022/04/24 06:57:17;;;;;;;30.47;18.07;;;12.00;99.90;;;;;;5010676;28;20212;-83
2022/04/24 06:59:43;;;;;;;25.23;17.30;;;12.10;99.90;;;;;;5011254;28;20204;-78
2022/04/24 07:02:10;;;;;;;28.07;19.23;;;12.10;99.90;;;;;;5008901;28;20213;-76
2022/04/24 07:04:38;;;;;;;29.00;16.03;;;12.10;99.90;;;;;;5010040;28;20579;-71
2022/04/24 07:07:06;;;;;;;20.87;16.50;;;12.10;99.90;;;;;;5003190;28;20291;-75
2022/04/24 07:09:33;;;;;;;20.63;15.00;;;12.00;99.90;;;;;;5011191;28;20263;-78
2022/04/24 07:12:00;;;;;;;29.50;16.13;;;12.10;99.90;;;;;;5002836;28;20200;-72
2022/04/24 07:14:27;;;;;;;22.10;15.57;;;12.10;99.90;;;;;;5002713;28;20204;-83
2022/04/24 07:16:54;;;;;;;22.77;15.57;;;12.10;99.90;;;;;;5009376;28;20270;-71
2022/04/24 07:19:21;;;;;;;25.80;15.27;;;12.10;99.90;;;;;;4999286;28;20278;-72
2022/04/24 07:21:49;;;;;;;22.43;14.27;;;12.10;99.90;;;;;;5007830;28;20323;-70
2022/04/24 07:24:18;;;;;;;23.57;15.83;;;12.10;99.90;;;;;;5007923;28;20294;-78
2022/04/24 07:26:45;;;;;;;25.40;14.10;;;12.20;99.90;;;;;;5004902;28;20208;-71
2022/04/24 07:29:12;;;;;;;24.90;14.97;;;12.20;99.90;;;;;;5006962;28;20207;-71
2022/04/24 07:31:39;;;;;;;21.05;13.55;;;12.20;99.90;;;;;;5001889;28;20282;-71
2022/04/24 07:34:06;;;;;;;21.40;14.60;;;12.20;99.90;;;;;;5007688;28;20204;-70
2022/04/24 07:36:32;;;;;;;21.67;14.67;;;12.20;99.90;;;;;;5008183;28;20209;-72
2022/04/24 07:38:59;;;;;;;19.58;15.05;;;12.20;99.90;;;;;;5002574;28;20204;-72
2022/04/24 07:41:28;;;;;;;17.53;13.73;;;12.20;99.90;;;;;;5010212;28;20282;-71
2022/04/24 07:43:55;;;;;;;21.23;13.40;;;12.20;99.90;;;;;;5001793;28;20730;-69
2022/04/24 07:46:23;;;;;;;17.75;13.43;;;12.20;99.90;;;;;;5001108;28;20722;-73
2022/04/24 07:48:50;;;;;;;20.23;13.77;;;12.10;99.90;;;;;;5010555;28;20231;-72
2022/04/24 07:51:17;;;;;;;20.48;14.32;;;12.10;99.90;;;;;;5010540;28;20204;-74
2022/04/24 07:53:44;;;;;;;20.93;14.80;;;12.10;99.90;;;;;;5011356;28;20262;-73
2022/04/24 07:56:11;;;;;;;22.70;14.10;;;12.10;99.90;;;;;;5010350;28;20204;-72
2022/04/24 07:58:40;;;;;;;24.33;13.32;;;12.10;99.90;;;;;;5011056;28;20295;-73
2022/04/24 08:01:07;;;;;;;19.17;13.50;;;12.10;99.90;;;;;;5010784;28;20660;-77
2022/04/24 08:03:34;;;;;;;19.50;12.88;;;12.10;99.90;;;;;;5011092;28;20208;-74
2022/04/24 08:06:01;;;;;;;23.10;14.33;;;12.10;99.90;;;;;;5010602;28;20755;-72
2022/04/24 08:08:28;;;;;;;20.70;13.50;;;12.10;99.90;;;;;;5008248;28;20633;-73
2022/04/24 08:10:56;;;;;;;20.27;13.85;;;12.10;99.90;;;;;;5002087;28;20251;-72
2022/04/24 08:13:24;;;;;;;26.03;15.73;;;12.00;99.90;;;;;;5009964;28;20204;-74
2022/04/24 08:15:53;;;;;;;19.50;12.90;;;12.00;99.90;;;;;;5009697;28;20675;-75
2022/04/24 08:18:21;;;;;;;27.10;15.20;;;12.00;99.90;;;;;;5010091;28;20240;-71
2022/04/24 08:20:48;;;;;;;25.13;14.37;;;12.00;99.90;;;;;;5009786;28;20228;-72
2022/04/24 08:23:17;;;;;;;20.07;13.93;;;12.00;99.90;;;;;;5009988;28;20258;-71
2022/04/24 08:25:44;;;;;;;23.73;14.00;;;12.10;99.90;;;;;;4999201;28;20208;-71
2022/04/24 08:28:13;;;;;;;20.83;12.87;;;12.10;99.90;;;;;;5008269;28;20750;-72
2022/04/24 08:30:41;;;;;;;20.03;11.80;;;12.20;99.90;;;;;;5001204;28;20217;-80
2022/04/24 08:33:10;;;;;;;19.83;13.48;;;12.30;99.90;;;;;;5002603;28;20212;-71
2022/04/24 08:35:37;;;;;;;17.17;12.20;;;12.30;99.90;;;;;;5010364;28;20255;-72
2022/04/24 08:38:05;;;;;;;22.63;13.07;;;12.40;99.90;;;;;;5002400;28;20208;-73
2022/04/24 08:40:32;;;;;;;16.73;11.45;;;12.50;99.90;;;;;;5007712;28;20275;-73
2022/04/24 08:43:00;;;;;;;17.33;12.43;;;12.50;99.90;;;;;;5007926;28;20274;-72
2022/04/24 08:45:28;;;;;;;11.52;10.15;;;12.60;99.90;;;;;;5009173;28;20236;-73
2022/04/24 08:47:56;;;;;;;17.77;10.70;;;12.70;99.90;;;;;;5008295;28;20204;-72
2022/04/24 08:50:28;;;;;;;14.13;10.10;;;12.80;99.90;;;;;;5000502;28;20286;-72
2022/04/24 08:52:56;;;;;;;18.88;9.75;;;12.90;99.90;;;;;;5009389;28;20208;-76
2022/04/24 08:55:25;;;;;;;16.10;12.57;;;13.10;99.90;;;;;;5011785;28;20210;-76
2022/04/24 08:57:52;;;;;;;16.13;11.05;;;13.30;99.90;;;;;;5012832;28;20672;-76
2022/04/24 09:00:19;;;;;;;14.95;10.18;;;13.40;99.90;;;;;;5013159;28;20266;-71
2022/04/24 09:02:47;;;;;;;19.27;9.87;;;13.60;99.90;;;;;;5013243;28;20209;-70
2022/04/24 09:05:14;;;;;;;15.45;9.48;;;13.70;99.90;;;;;;5004914;28;20208;-74
2022/04/24 09:07:43;;;;;;;18.58;11.10;;;13.80;99.90;;;;;;5006401;28;20201;-72
2022/04/24 09:10:12;;;;;;;14.90;9.18;;;13.90;99.90;;;;;;5011457;28;20219;-71
2022/04/24 09:12:41;;;;;;;15.10;9.57;;;13.90;99.90;;;;;;5013593;28;20208;-71
2022/04/24 09:15:09;;;;;;;11.88;8.68;;;14.10;99.90;;;;;;5012783;28;20234;-70
2022/04/24 09:17:37;;;;;;;12.73;8.60;;;14.00;99.90;;;;;;5013617;28;20206;-72
2022/04/24 09:20:17;;;;;;;20.30;12.00;;;13.90;99.90;;;;;;5010933;28;20208;-71
2022/04/24 09:22:46;;;;;;;14.48;10.40;;;14.00;99.90;;;;;;5012817;28;20295;-70
2022/04/24 09:25:13;;;;;;;13.77;9.68;;;14.10;99.90;;;;;;5012140;28;20263;-71
2022/04/24 09:27:41;;;;;;;18.38;11.57;;;14.20;99.90;;;;;;5004702;28;20737;-76
2022/04/24 09:30:12;;;;;;;15.50;8.98;;;14.30;99.90;;;;;;5012106;28;20613;-71
2022/04/24 09:32:47;;;;;;;11.75;8.18;;;14.30;99.90;;;;;;5012728;28;20270;-72
2022/04/24 09:35:27;;;;;;;12.88;8.15;;;14.40;99.90;;;;;;5003966;28;20204;-70
2022/04/24 09:38:07;;;;;;;10.73;8.05;;;14.50;99.90;;;;;;5004206;28;20212;-82
2022/04/24 09:40:39;;;;;;;13.50;8.88;;;14.60;99.90;;;;;;5003534;28;20266;-72
2022/04/24 09:43:09;;;;;;;13.90;9.90;;;14.80;99.90;;;;;;5012334;28;20251;-72
2022/04/24 09:45:37;;;;;;;13.07;7.90;;;14.70;99.90;;;;;;5001405;28;20260;-71
2022/04/24 09:48:12;;;;;;;11.27;9.20;;;14.60;99.90;;;;;;5008546;28;20200;-72
2022/04/24 09:50:39;;;;;;;13.45;8.55;;;14.50;99.90;;;;;;5004230;28;20227;-70
2022/04/24 09:53:09;;;;;;;15.52;8.90;;;14.60;99.90;;;;;;5010135;28;20259;-72
2022/04/24 09:55:37;;;;;;;12.55;8.30;;;14.70;99.90;;;;;;5010914;28;20208;-71
2022/04/24 09:58:04;;;;;;;11.25;7.63;;;14.70;99.90;;;;;;5012712;28;20227;-70
2022/04/24 10:00:33;;;;;;;8.80;7.35;;;15.50;99.90;;;;;;5011493;28;20208;-70
2022/04/24 10:03:02;;;;;;;10.05;8.30;;;15.80;99.90;;;;;;5011908;28;20204;-81
2022/04/24 10:05:30;;;;;;;11.80;8.52;;;16.00;99.90;;;;;;5004891;28;20248;-71
2022/04/24 10:07:58;;;;;;;12.40;7.15;;;16.50;99.90;;;;;;5007492;28;20255;-71
2022/04/24 10:10:26;;;;;;;16.00;7.22;;;17.00;99.90;;;;;;5000578;28;20235;-73
2022/04/24 10:12:54;;;;;;;9.55;7.43;;;17.10;99.90;;;;;;5012132;28;20250;-70
2022/04/24 10:15:24;;;;;;;14.02;8.45;;;17.50;99.90;;;;;;5004376;28;20263;-72
2022/04/24 10:18:04;;;;;;;14.48;8.13;;;17.00;99.90;;;;;;5011610;28;20739;-71
2022/04/24 10:20:45;;;;;;;12.43;7.90;;;16.80;99.90;;;;;;5010727;28;20211;-70
2022/04/24 10:23:12;;;;;;;11.10;7.28;;;16.30;99.90;;;;;;5011263;28;20672;-71
2022/04/24 10:25:43;;;;;;;14.45;7.63;;;16.00;99.90;;;;;;4998793;28;20204;-71
2022/04/24 10:28:12;;;;;;;14.45;7.32;;;16.10;99.90;;;;;;5005055;28;20757;-70
2022/04/24 10:30:39;;;;;;;8.07;6.28;;;16.10;99.90;;;;;;5011371;28;20208;-68
2022/04/24 10:33:18;;;;;;;12.65;7.13;;;16.60;99.90;;;;;;5011871;28;20200;-71
2022/04/24 10:35:50;;;;;;;10.98;7.47;;;16.20;99.90;;;;;;5010902;28;20246;-69
2022/04/24 10:38:18;;;;;;;11.63;7.97;;;15.80;99.90;;;;;;5011520;28;20204;-71
2022/04/24 10:40:58;;;;;;;10.68;8.38;;;15.80;99.90;;;;;;5011316;28;20206;-71
2022/04/24 10:43:26;;;;;;;11.68;7.50;;;15.70;99.90;;;;;;5011226;28;20258;-71
2022/04/24 10:45:53;;;;;;;8.00;7.07;;;15.80;99.90;;;;;;5002857;28;20248;-69
2022/04/24 10:48:21;;;;;;;13.73;7.38;;;15.80;99.90;;;;;;5010869;28;20204;-72
2022/04/24 10:50:49;;;;;;;15.80;7.53;;;16.40;99.90;;;;;;5011074;28;20251;-69
2022/04/24 10:53:17;;;;;;;11.88;7.80;;;16.80;99.90;;;;;;5010800;28;20641;-70
2022/04/24 10:55:44;;;;;;;12.65;6.72;;;16.30;99.90;;;;;;5011071;28;20251;-71
2022/04/24 10:58:13;;;;;;;9.05;7.22;;;16.30;99.90;;;;;;5002583;28;20259;-69
2022/04/24 11:00:42;;;;;;;9.70;7.60;;;16.30;99.90;;;;;;5009828;28;20215;-75
2022/04/24 11:03:14;;;;;;;7.07;6.38;;;16.60;99.90;;;;;;5002445;28;20220;-72
2022/04/24 11:05:42;;;;;;;17.65;7.57;;;17.00;99.90;;;;;;5011077;28;20211;-71
2022/04/24 11:08:14;;;;;;;23.70;14.85;;;17.20;99.90;;;;;;5010546;28;20201;-69
2022/04/24 11:10:42;;;;;;;10.15;6.82;;;17.30;99.90;;;;;;5011174;28;20215;-72
2022/04/24 11:13:16;;;;;;;11.15;8.63;;;17.50;99.90;;;;;;5002421;28;20208;-69
2022/04/24 11:15:45;;;;;;;12.18;7.47;;;17.60;99.90;;;;;;5010354;28;20208;-71
2022/04/24 11:18:22;;;;;;;7.97;7.05;;;17.20;99.90;;;;;;5007693;28;20215;-71
2022/04/24 11:21:01;;;;;;;6.13;5.50;;;16.80;99.90;;;;;;5006207;28;20206;-70
2022/04/24 11:23:30;;;;;;;9.75;5.90;;;17.10;99.90;;;;;;5003096;28;20655;-70
2022/04/24 11:25:59;;;;;;;12.20;7.55;;;17.10;99.90;;;;;;5010577;28;20200;-69
2022/04/24 11:28:37;;;;;;;7.45;6.13;;;17.50;99.90;;;;;;5002669;28;20205;-72
2022/04/24 11:31:09;;;;;;;8.90;6.75;;;17.00;99.90;;;;;;5010552;28;20580;-70
2022/04/24 11:33:36;;;;;;;10.20;6.10;;;16.50;99.90;;;;;;5010743;28;20279;-69
2022/04/24 11:36:05;;;;;;;14.50;12.07;;;15.90;99.90;;;;;;5006496;28;20634;-71
2022/04/24 11:38:33;;;;;;;14.93;9.57;;;15.80;99.90;;;;;;5006358;28;20204;-69
2022/04/24 11:41:03;;;;;;;12.82;7.38;;;15.70;99.90;;;;;;5003909;28;21096;-70
2022/04/24 11:43:30;;;;;;;9.55;6.80;;;15.90;99.90;;;;;;5005664;28;20822;-68
2022/04/24 11:51:32;;;;;;;8.32;5.60;;;17.30;99.90;;;;;;5003782;28;20635;-74
2022/04/24 11:53:59;;;;;;;12.30;5.95;;;17.10;99.90;;;;;;5006190;28;20210;-72
2022/04/24 11:56:27;;;;;;;6.55;5.95;;;16.70;99.90;;;;;;5007698;28;20216;-70
2022/04/24 11:59:05;;;;;;;16.25;6.57;;;16.60;99.90;;;;;;5008384;28;20723;-71
2022/04/24 12:01:33;;;;;;;10.60;6.28;;;16.60;99.90;;;;;;5006916;28;20229;-69
2022/04/24 12:04:00;;;;;;;12.38;6.30;;;16.70;99.90;;;;;;5006023;28;20247;-71
2022/04/24 12:06:32;;;;;;;12.18;6.30;;;16.90;99.90;;;;;;5007642;28;20204;-71
2022/04/24 12:09:07;;;;;;;6.18;5.28;;;17.10;99.90;;;;;;5005210;28;20549;-72
2022/04/24 12:11:35;;;;;;;8.88;5.95;;;17.40;99.90;;;;;;5003050;28;20223;-71
2022/04/24 12:14:03;;;;;;;10.68;5.65;;;17.40;99.90;;;;;;5010466;28;20255;-71
2022/04/24 12:16:31;;;;;;;5.63;5.07;;;17.50;99.90;;;;;;5009081;28;20203;-71
2022/04/24 12:19:00;;;;;;;11.52;5.28;;;17.80;99.90;;;;;;5009876;28;20757;-79
2022/04/24 12:21:28;;;;;;;12.27;5.95;;;18.10;99.90;;;;;;5007856;28;20232;-71
2022/04/24 12:23:56;;;;;;;7.95;4.68;;;17.80;99.90;;;;;;5008765;28;20677;-72
2022/04/24 12:26:23;;;;;;;7.93;5.05;;;17.30;99.90;;;;;;5009358;28;20753;-68
2022/04/24 12:28:50;;;;;;;5.93;4.68;;;17.20;99.90;;;;;;5009997;28;20200;-73
2022/04/24 12:31:21;;;;;;;6.50;5.22;;;17.50;99.90;;;;;;5013110;28;20200;-72
2022/04/24 12:33:50;;;;;;;7.38;4.95;;;17.80;99.90;;;;;;5006598;28;20675;-72
2022/04/24 12:36:18;;;;;;;9.70;5.25;;;17.70;99.90;;;;;;5013273;28;20212;-70
2022/04/24 12:38:55;;;;;;;5.80;4.00;;;17.50;99.90;;;;;;5005365;28;20196;-71
2022/04/24 12:41:23;;;;;;;8.00;5.18;;;17.50;99.90;;;;;;5005162;28;20207;-70
2022/04/24 12:43:51;;;;;;;5.68;4.68;;;17.50;99.90;;;;;;5013892;28;20215;-71
2022/04/24 12:46:18;;;;;;;6.72;4.88;;;17.50;99.90;;;;;;5005209;28;20209;-69
2022/04/24 12:48:49;;;;;;;7.18;6.18;;;17.90;99.90;;;;;;5005301;28;20671;-73
2022/04/24 12:51:16;;;;;;;4.65;3.80;;;17.90;99.90;;;;;;5012526;28;20667;-74
2022/04/24 12:53:45;;;;;;;10.30;5.43;;;17.90;99.90;;;;;;5003754;28;20212;-71